Observations for BELFAST ALDERGROVE, United Kingdom (EGAA)

EGAA 280520Z 08008KT 4000 BR BKN003 BKN006 BKN010 13/12 Q1002   
EGAA 280450Z 09008KT 060V130 4500 BR BKN005 BKN009 13/13 Q1001  
EGAA 280420Z 10010KT 5000 -DZ BKN004 BKN008 13/13 Q1001 
EGAA 280350Z 09009KT 2200 BR BKN004 BKN008 13/13 Q1001  
EGAA 280320Z 09010KT 3900 -DZ BKN005 BKN008 13/13 Q1001 REDZ
EGAA 280250Z 10008KT 2600 -DZ BKN003 BKN007 13/13 Q1001 REDZ
EGAA 280220Z 10008KT 060V130 2900 DZ BKN003 14/13 Q1002 
EGAA 280150Z 10008KT 070V130 3500 -DZ HZ BKN004 14/13 Q1002 
EGAA 280120Z 09006KT 6000 -DZ FEW004 BKN007 14/14 Q1002 
EGAA 280050Z 10007KT 4500 -DZ HZ BKN004 14/14 Q1002 
EGAA 280020Z 12005KT 080V160 7000 BKN007 14/14 Q1002
EGAA 272350Z 12007KT 9999 SCT008 SCT015 15/13 Q1002 
EGAA 272320Z 12008KT 080V140 9999 SCT009 SCT017 14/13 Q1002 
EGAA 272250Z 11009KT 9999 FEW009 14/13 Q1002
EGAA 272220Z 10008KT 9999 FEW008 14/13 Q1002
EGAA 272150Z 11009KT 080V140 9999 SCT009 SCT016 14/13 Q1002 
EGAA 272120Z 10007KT 070V140 9999 FEW009 SCT017 14/13 Q1002 
EGAA 272050Z 09008KT 070V130 CAVOK 14/13 Q1001  
EGAA 272020Z 12007KT 9999 FEW010 15/13 Q1001
EGAA 271950Z 12008KT 9999 FEW010 15/13 Q1001
EGAA 271920Z 12009KT 9999 SCT008 16/14 Q1001
EGAA 271850Z 12009KT 9999 SCT009 16/14 Q1001
EGAA 271820Z 12010KT 090V150 9999 SCT012 17/14 Q1001
EGAA 271750Z 11009KT 080V140 9999 FEW012 18/15 Q1001
EGAA 271720Z 10008KT 9999 FEW014 18/15 Q1001
EGAA 271650Z 10008KT 9999 FEW018 18/15 Q1001
EGAA 271620Z 19011KT 9999 SCT016 SCT023 19/15 Q1001 
EGAA 271550Z 12008KT 9999 FEW012 SCT028CB 19/15 Q1002   
EGAA 271520Z 12007KT 9999 SCT028CB 18/15 Q1002  
EGAA 271450Z 19013KT 9999 VCSH SCT010 SCT014 BKN024 19/15 Q1002 
EGAA 271420Z 18012KT 9999 BKN010 BKN015 18/16 Q1002 
EGAA 271350Z 21009KT 9999 BKN009 BKN013 19/16 Q1002 
EGAA 271320Z 20010KT 9999 FEW009 SCT014 BKN019 18/16 Q1002  
EGAA 271250Z 11007KT 080V140 9999 FEW010 SCT019 BKN025 17/15 Q1003  
EGAA 271220Z 12007KT 090V150 9999 SCT012 BKN017 17/15 Q1003 
EGAA 271150Z 11007KT 080V140 9999 SCT015 BKN020 17/14 Q1003 
EGAA 271120Z 10006KT 060V130 9999 FEW010 SCT015 BKN020 17/15 Q1003  
EGAA 271050Z 11005KT 070V150 9999 SCT009 BKN014 17/15 Q1003 
EGAA 271020Z 10005KT 070V150 9999 SCT007 BKN010 16/14 Q1003 
EGAA 270950Z 10005KT 080V140 9999 SCT006 BKN009 15/14 Q1004 
EGAA 270920Z 12004KT 080V160 9999 SCT005 BKN008 15/14 Q1004 
EGAA 270850Z 12005KT 090V160 9999 SCT004 BKN008 14/14 Q1004 
EGAA 270820Z 11006KT 9999 SCT005 BKN010 14/13 Q1004 
EGAA 270750Z 11006KT 9999 SCT004 BKN008 14/13 Q1004 
EGAA 270720Z 11007KT 9999 SCT005 BKN022 13/13 Q1005 
EGAA 270650Z 11006KT 9999 -RA SCT006 BKN027 13/13 Q1005 
EGAA 270620Z 08006KT 7000 3000E -DZ BR SCT012 SCT030 12/12 Q1005
EGAA 270550Z 08006KT 3500 -RADZ BR FEW005 SCT008 BKN017 12/12 Q1005 RERA
EGAA 270520Z 06006KT 4300 RA SCT004 BKN007 BKN021 12/12 Q1006   
EGAA 270450Z 06005KT 4500 -RA BKN005 OVC027 11/11 Q1006